KEBS/EBS METAR and TAF weather

Enter ICAO airport designator
Station Type Date Time Source
KEBS METAR 2019/04/18 20:15 UTC NOAA

KEBS 182015Z AUTO 33019G25KT 10SM OVC041 11/04 A2983 RMK AO2


Station Type Date Time Source
KEBS Decoded METAR 2019/04/18 20:15 UTC NOAA

Webster City, IA, United States (KEBS) 42-26N 093-52W
Apr 18, 2019 - 04:15 PM EDT / 2019.04.18 2015 UTC
Wind: from the NNW (330 degrees) at 22 MPH (19 KT) gusting to 29 MPH (25 KT):0
Visibility: 10 mile(s):0
Sky conditions: overcast
Temperature: 51 F (11 C)
Dew Point: 39 F (4 C)
Relative Humidity: 61%
Pressure (altimeter): 29.83 in. Hg (1010 hPa)
ob: KEBS 182015Z AUTO 33019G25KT 10SM OVC041 11/04 A2983 RMK AO2
cycle: 20

Station Type Date Time Source
KEBS TAF UTC NOAA

Error!

Example: see airport list